createdAt,value
2022-08-28T00:00:16.247Z,5.50
2022-08-28T00:04:00.141Z,6.17
2022-08-28T00:07:46.977Z,6.43
2022-08-28T00:11:29.681Z,6.60
2022-08-28T00:15:16.299Z,6.23
2022-08-28T00:18:58.296Z,7.03
2022-08-28T00:22:40.576Z,5.35
2022-08-28T00:26:41.670Z,7.85
2022-08-28T00:30:25.201Z,8.05
2022-08-28T00:34:09.504Z,10.60
2022-08-28T00:37:52.760Z,7.25
2022-08-28T00:41:36.446Z,7.73
2022-08-28T00:45:19.742Z,11.15
2022-08-28T00:49:01.697Z,8.93
2022-08-28T00:52:46.670Z,9.77
2022-08-28T00:56:30.417Z,9.20
2022-08-28T01:00:17.298Z,7.15
2022-08-28T01:03:59.225Z,7.82
2022-08-28T01:07:42.053Z,5.72
2022-08-28T01:11:24.367Z,7.35
2022-08-28T01:15:13.449Z,7.00
2022-08-28T01:18:57.485Z,8.13
2022-08-28T01:23:07.140Z,8.23
2022-08-28T01:26:49.217Z,7.57
2022-08-28T01:30:32.502Z,11.17
2022-08-28T01:34:14.982Z,8.77
2022-08-28T01:37:57.407Z,8.65
2022-08-28T01:41:48.181Z,7.47
2022-08-28T01:45:31.461Z,8.25
2022-08-28T01:49:13.825Z,7.53
2022-08-28T01:52:55.787Z,10.68
2022-08-28T01:56:39.111Z,14.00
2022-08-28T02:00:26.957Z,9.68
2022-08-28T02:04:09.515Z,8.55
2022-08-28T02:07:52.616Z,8.23
2022-08-28T02:11:35.108Z,10.20
2022-08-28T02:15:17.366Z,12.60
2022-08-28T02:19:01.440Z,12.50
2022-08-28T02:22:43.341Z,13.77
2022-08-28T02:26:25.448Z,11.80
2022-08-28T02:30:09.973Z,15.40
2022-08-28T02:33:52.008Z,14.73
2022-08-28T02:37:33.888Z,15.93
2022-08-28T02:41:15.926Z,16.92
2022-08-28T02:44:59.573Z,16.30
2022-08-28T02:48:41.561Z,15.10
2022-08-28T02:52:24.646Z,17.95
2022-08-28T02:56:07.410Z,15.20
2022-08-28T02:59:49.387Z,16.52
2022-08-28T03:03:32.646Z,16.15
2022-08-28T03:07:15.642Z,17.58
2022-08-28T03:10:58.047Z,19.40
2022-08-28T03:14:40.528Z,16.23
2022-08-28T03:18:22.639Z,18.30
2022-08-28T03:22:04.580Z,18.90
2022-08-28T03:25:46.619Z,19.90
2022-08-28T03:29:28.553Z,18.70
2022-08-28T03:33:10.682Z,17.48
2022-08-28T03:36:52.549Z,18.35
2022-08-28T03:40:38.652Z,17.98
2022-08-28T03:44:20.562Z,21.15
2022-08-28T03:48:04.322Z,18.57
2022-08-28T03:51:46.409Z,19.33
2022-08-28T03:55:28.977Z,18.58
2022-08-28T03:59:10.886Z,17.67
2022-08-28T04:02:53.602Z,18.95
2022-08-28T04:06:36.144Z,18.95
2022-08-28T04:10:18.298Z,17.02
2022-08-28T04:14:00.163Z,16.08
2022-08-28T04:17:42.068Z,15.40
2022-08-28T04:21:26.238Z,18.42
2022-08-28T04:25:08.962Z,16.77
2022-08-28T04:28:54.792Z,15.25
2022-08-28T04:32:38.719Z,16.10
2022-08-28T04:36:20.592Z,14.87
2022-08-28T04:40:08.722Z,14.05
2022-08-28T04:43:52.802Z,14.32
2022-08-28T04:47:39.075Z,15.18
2022-08-28T04:51:21.075Z,11.85
2022-08-28T04:55:03.904Z,14.13
2022-08-28T04:58:46.085Z,14.68
2022-08-28T05:02:27.991Z,16.50
2022-08-28T05:06:12.279Z,13.93
2022-08-28T05:09:54.717Z,13.25
2022-08-28T05:13:37.375Z,16.87
2022-08-28T05:17:19.272Z,10.52
2022-08-28T05:21:01.932Z,12.27
2022-08-28T05:24:44.551Z,21.33
2022-08-28T05:28:26.603Z,11.85
2022-08-28T05:32:09.502Z,13.98
2022-08-28T05:35:51.375Z,15.25
2022-08-28T05:39:33.326Z,16.63
2022-08-28T05:43:16.785Z,15.77
2022-08-28T05:46:58.694Z,12.85
2022-08-28T05:50:43.047Z,14.07
2022-08-28T05:54:29.430Z,13.65
2022-08-28T05:58:29.119Z,11.73
2022-08-28T06:02:11.337Z,11.95
2022-08-28T06:05:56.376Z,12.35
2022-08-28T06:09:38.524Z,10.93
2022-08-28T06:13:20.617Z,11.82
2022-08-28T06:17:04.033Z,8.93
2022-08-28T06:21:05.163Z,9.60
2022-08-28T06:24:47.076Z,11.68
2022-08-28T06:28:29.026Z,8.37
2022-08-28T06:32:22.954Z,10.38
2022-08-28T06:40:16.394Z,8.98
2022-08-28T06:44:44.096Z,11.10
2022-08-28T06:52:39.348Z,10.90
2022-08-28T06:57:21.045Z,7.50
2022-08-28T07:01:37.772Z,6.65
2022-08-28T07:05:19.916Z,10.07
2022-08-28T07:09:34.767Z,6.97
2022-08-28T07:13:40.855Z,6.47
2022-08-28T07:22:07.445Z,11.15
2022-08-28T07:26:26.329Z,8.35
2022-08-28T07:34:19.693Z,6.07
2022-08-28T07:46:44.562Z,5.53
2022-08-28T07:54:40.507Z,8.88
2022-08-28T07:59:04.352Z,9.97
2022-08-28T08:02:46.526Z,5.93
2022-08-28T08:07:13.220Z,9.43
2022-08-28T08:11:27.997Z,6.40
2022-08-28T08:19:34.855Z,7.38
2022-08-28T08:23:51.950Z,6.05
2022-08-28T08:31:47.333Z,6.00
2022-08-28T08:39:42.084Z,7.37
2022-08-28T08:44:09.949Z,4.78
2022-08-28T08:52:03.100Z,5.63
2022-08-28T08:56:34.843Z,5.97
2022-08-28T09:01:08.182Z,6.65
2022-08-28T09:05:42.619Z,4.47
2022-08-28T09:10:08.955Z,6.10
2022-08-28T09:32:41.009Z,5.50
2022-08-28T09:37:13.875Z,4.65
2022-08-28T09:41:44.040Z,4.93
2022-08-28T09:46:14.484Z,2.95
2022-08-28T09:50:44.490Z,4.45
2022-08-28T10:04:22.527Z,4.38
2022-08-28T10:53:49.767Z,4.67
2022-08-28T11:20:50.360Z,9.48
2022-08-28T11:37:57.231Z,3.47
2022-08-28T11:46:55.393Z,5.03
2022-08-28T11:51:16.563Z,3.95
2022-08-28T11:55:46.500Z,3.45
2022-08-28T12:17:20.337Z,4.32
2022-08-28T12:47:47.439Z,4.25
2022-08-28T12:52:04.103Z,3.60
2022-08-28T13:09:03.506Z,4.38
2022-08-28T13:17:59.760Z,3.13
2022-08-28T13:26:58.774Z,2.73
2022-08-28T13:35:58.853Z,3.90
2022-08-28T13:44:59.863Z,3.58
2022-08-28T13:54:00.880Z,3.72
2022-08-28T13:58:32.873Z,3.65
2022-08-28T14:03:02.924Z,3.30
2022-08-28T14:12:03.947Z,3.53
2022-08-28T14:16:37.853Z,5.05
2022-08-28T14:34:47.709Z,3.95
2022-08-28T14:51:27.199Z,4.15
2022-08-28T15:00:30.066Z,3.97
2022-08-28T15:14:01.189Z,5.13
2022-08-28T15:18:31.124Z,4.10
2022-08-28T15:27:31.186Z,3.85
2022-08-28T15:32:02.220Z,5.03
2022-08-28T15:36:32.176Z,5.03
2022-08-28T15:41:03.222Z,5.17
2022-08-28T15:45:33.438Z,3.13
2022-08-28T15:50:03.242Z,7.55
2022-08-28T15:54:34.298Z,3.50
2022-08-28T15:59:04.269Z,6.60
2022-08-28T16:03:34.275Z,5.78
2022-08-28T16:08:05.290Z,3.33
2022-08-28T16:20:26.691Z,2.90
2022-08-28T16:32:49.670Z,5.03
2022-08-28T16:40:47.136Z,6.05
2022-08-28T16:45:13.660Z,3.42
2022-08-28T16:49:45.726Z,5.40
2022-08-28T16:54:15.707Z,4.28
2022-08-28T16:58:45.788Z,4.68
2022-08-28T17:07:45.901Z,3.78
2022-08-28T17:30:22.672Z,4.13
2022-08-28T17:34:49.850Z,4.73
2022-08-28T17:39:20.064Z,3.00
2022-08-28T17:43:49.891Z,4.65
2022-08-28T17:52:50.099Z,3.50
2022-08-28T17:57:19.349Z,4.43
2022-08-28T18:06:20.035Z,3.63
2022-08-28T18:15:22.461Z,5.13
2022-08-28T18:28:53.154Z,4.40
2022-08-28T18:33:23.032Z,3.13
2022-08-28T18:42:01.208Z,5.60
2022-08-28T18:45:47.526Z,4.95
2022-08-28T18:49:51.357Z,4.55
2022-08-28T18:53:42.353Z,5.47
2022-08-28T18:57:45.594Z,5.57
2022-08-28T19:01:29.536Z,6.10
2022-08-28T19:05:12.758Z,6.18
2022-08-28T19:08:54.675Z,4.85
2022-08-28T19:12:37.361Z,4.93
2022-08-28T19:16:20.621Z,6.05
2022-08-28T19:20:09.672Z,7.45
2022-08-28T19:23:56.036Z,5.30
2022-08-28T19:27:39.562Z,6.80
2022-08-28T19:31:23.229Z,5.43
2022-08-28T19:35:05.635Z,7.38
2022-08-28T19:38:47.949Z,8.33
2022-08-28T19:42:29.883Z,9.35
2022-08-28T19:46:19.274Z,7.18
2022-08-28T19:50:02.262Z,5.57
2022-08-28T19:53:44.154Z,6.15
2022-08-28T19:57:26.290Z,4.72
2022-08-28T20:01:08.233Z,5.78
2022-08-28T20:04:50.270Z,6.68
2022-08-28T20:08:32.714Z,5.72
2022-08-28T20:12:14.791Z,5.05
2022-08-28T20:15:56.836Z,6.50
2022-08-28T20:19:38.793Z,5.45
2022-08-28T20:23:20.708Z,4.68
2022-08-28T20:27:03.106Z,3.93
2022-08-28T20:30:46.878Z,5.80
2022-08-28T20:34:29.035Z,4.32
2022-08-28T20:38:11.500Z,4.30
2022-08-28T20:41:53.524Z,5.38
2022-08-28T20:45:35.390Z,4.35
2022-08-28T20:49:17.459Z,3.95
2022-08-28T20:53:02.662Z,4.83
2022-08-28T20:56:44.538Z,4.82
2022-08-28T21:00:26.628Z,5.47
2022-08-28T21:04:08.791Z,6.40
2022-08-28T21:07:51.060Z,7.22
2022-08-28T21:11:32.971Z,4.40
2022-08-28T21:15:14.909Z,4.68
2022-08-28T21:19:15.118Z,5.68
2022-08-28T21:22:58.220Z,3.95
2022-08-28T21:26:45.289Z,5.43
2022-08-28T21:30:29.524Z,4.13
2022-08-28T21:34:12.297Z,7.22
2022-08-28T21:37:54.183Z,5.78
2022-08-28T21:41:36.699Z,6.27
2022-08-28T21:45:18.605Z,6.03
2022-08-28T21:49:01.127Z,7.38
2022-08-28T21:52:43.218Z,5.07
2022-08-28T21:56:27.865Z,4.85
2022-08-28T22:00:15.895Z,5.30
2022-08-28T22:03:57.865Z,6.80
2022-08-28T22:07:40.504Z,5.93
2022-08-28T22:11:25.132Z,5.55
2022-08-28T22:15:07.608Z,5.70
2022-08-28T22:18:49.591Z,4.70
2022-08-28T22:22:50.232Z,5.68
2022-08-28T22:26:32.229Z,5.40
2022-08-28T22:30:14.494Z,5.00
2022-08-28T22:33:56.643Z,6.80
2022-08-28T22:37:38.619Z,5.95
2022-08-28T22:41:21.389Z,8.25
2022-08-28T22:45:06.880Z,7.23
2022-08-28T22:48:49.155Z,6.72
2022-08-28T22:52:31.556Z,6.43
2022-08-28T22:56:14.790Z,4.50
2022-08-28T23:00:01.417Z,6.72
2022-08-28T23:03:43.746Z,4.75
2022-08-28T23:07:25.670Z,4.80
2022-08-28T23:11:08.386Z,4.25
2022-08-28T23:14:50.691Z,4.05
2022-08-28T23:18:46.352Z,6.00
2022-08-28T23:22:34.984Z,5.93
2022-08-28T23:26:17.032Z,5.40
2022-08-28T23:29:58.909Z,4.15
2022-08-28T23:33:41.333Z,5.90
2022-08-28T23:37:23.280Z,4.53
2022-08-28T23:41:05.485Z,6.18
2022-08-28T23:44:47.367Z,4.07
2022-08-28T23:48:29.943Z,4.68
2022-08-28T23:52:12.184Z,4.03
2022-08-28T23:55:54.216Z,3.65
2022-08-28T23:59:37.138Z,6.13
